Time;durP1;ratioP1;P1;durP2;ratioP2;P2;SDS_P1;SDS_P2;PMS_P1;PMS_P2;Temp;Humidity;BMP_temperature;BMP_pressure;BME280_temperature;BME280_humidity;BME280_pressure;Samples;Min_cycle;Max_cycle;Signal;HPM_P1;HPM_P2
2021/07/20 00:02:43;;;;;;;4.93;3.97;;;24.40;68.30;;;;;;5057249;28;20029;-29
2021/07/20 00:05:10;;;;;;;4.68;4.28;;;24.40;68.30;;;;;;5057867;28;20031;-31
2021/07/20 00:07:36;;;;;;;4.03;3.83;;;24.40;68.30;;;;;;5067161;28;20025;-26
2021/07/20 00:10:05;;;;;;;4.55;4.32;;;24.40;68.40;;;;;;5068885;28;20097;-35
2021/07/20 00:12:31;;;;;;;3.75;3.55;;;24.40;68.30;;;;;;5067718;28;20033;-30
2021/07/20 00:14:58;;;;;;;3.85;3.65;;;24.40;68.40;;;;;;5065554;28;20028;-32
2021/07/20 00:17:23;;;;;;;4.07;3.78;;;24.40;68.30;;;;;;5047466;28;20070;-28
2021/07/20 00:19:49;;;;;;;4.45;4.10;;;24.40;68.40;;;;;;5065806;28;20075;-29
2021/07/20 00:22:15;;;;;;;4.30;4.00;;;24.40;68.40;;;;;;5069873;28;20025;-30
2021/07/20 00:24:41;;;;;;;3.90;3.60;;;24.40;68.40;;;;;;5050422;28;20021;-25
2021/07/20 00:27:06;;;;;;;4.20;3.90;;;24.40;68.40;;;;;;5070455;28;20032;-27
2021/07/20 00:29:32;;;;;;;4.20;3.85;;;24.30;68.40;;;;;;5071227;28;20553;-36
2021/07/20 00:31:58;;;;;;;4.70;3.55;;;24.30;68.60;;;;;;5055515;28;20043;-29
2021/07/20 00:34:23;;;;;;;3.88;3.50;;;24.30;68.30;;;;;;5060697;28;20037;-28
2021/07/20 00:36:49;;;;;;;3.42;3.22;;;24.30;68.30;;;;;;5061844;28;20493;-30
2021/07/20 00:39:14;;;;;;;4.22;3.85;;;24.30;68.40;;;;;;5063808;28;20021;-28
2021/07/20 00:41:40;;;;;;;3.67;3.40;;;24.30;68.30;;;;;;5067437;28;20031;-28
2021/07/20 00:44:06;;;;;;;3.75;3.47;;;24.30;68.40;;;;;;5063722;28;20040;-31
2021/07/20 00:46:31;;;;;;;3.58;3.38;;;24.30;68.50;;;;;;5043898;28;20104;-28
2021/07/20 00:48:57;;;;;;;4.05;3.75;;;24.30;68.50;;;;;;5061151;28;20036;-25
2021/07/20 00:51:22;;;;;;;4.25;3.63;;;24.30;68.50;;;;;;5062847;28;20029;-24
2021/07/20 00:53:48;;;;;;;3.88;3.60;;;24.30;68.50;;;;;;5065728;28;20024;-28
2021/07/20 00:56:15;;;;;;;4.05;3.75;;;24.30;68.60;;;;;;5071908;28;20020;-25
2021/07/20 00:58:40;;;;;;;3.85;3.55;;;24.20;68.40;;;;;;5038330;28;20493;-27
2021/07/20 01:01:06;;;;;;;5.63;3.58;;;24.30;68.40;;;;;;5075515;28;20027;-28
2021/07/20 01:03:33;;;;;;;3.58;3.30;;;24.20;68.40;;;;;;5074051;28;20032;-28
2021/07/20 01:06:00;;;;;;;3.83;3.63;;;24.20;68.60;;;;;;5047340;28;20037;-31
2021/07/20 01:08:26;;;;;;;3.85;3.65;;;24.20;68.60;;;;;;5045601;28;20021;-31
2021/07/20 01:10:52;;;;;;;3.70;3.50;;;24.20;68.60;;;;;;5053887;28;20044;-28
2021/07/20 01:13:17;;;;;;;3.95;3.65;;;24.20;68.60;;;;;;5041916;28;20135;-31
2021/07/20 01:15:43;;;;;;;3.33;3.13;;;24.20;68.60;;;;;;5044133;28;20385;-35
2021/07/20 01:18:09;;;;;;;3.78;3.10;;;24.20;68.70;;;;;;5038023;28;20028;-25
2021/07/20 01:20:34;;;;;;;3.45;3.25;;;24.20;68.70;;;;;;5050310;28;20024;-30
2021/07/20 01:23:21;;;;;;;3.70;3.50;;;24.10;68.60;;;;;;5045546;28;20052;-27
2021/07/20 01:25:47;;;;;;;3.92;3.17;;;24.20;68.70;;;;;;5046568;28;20037;-29
2021/07/20 01:28:18;;;;;;;4.03;3.72;;;24.10;68.70;;;;;;5076268;28;20031;-30
2021/07/20 01:30:56;;;;;;;3.80;3.50;;;24.10;68.60;;;;;;5073961;28;20021;-29
2021/07/20 01:33:21;;;;;;;3.60;3.40;;;24.10;68.70;;;;;;5056541;28;20036;-33
2021/07/20 01:35:47;;;;;;;3.97;3.25;;;24.10;68.80;;;;;;5052384;28;20024;-28
2021/07/20 01:38:13;;;;;;;3.83;3.60;;;24.10;68.70;;;;;;5068729;28;20075;-32
2021/07/20 01:40:39;;;;;;;3.67;3.47;;;24.10;68.80;;;;;;5069493;28;20513;-29
2021/07/20 01:43:07;;;;;;;3.92;3.63;;;24.00;68.80;;;;;;5053807;28;20106;-29
2021/07/20 01:45:34;;;;;;;3.88;3.67;;;24.10;68.80;;;;;;5052919;28;20025;-28
2021/07/20 01:48:00;;;;;;;4.00;3.70;;;24.00;68.90;;;;;;5050577;28;20477;-25
2021/07/20 01:50:26;;;;;;;4.22;3.92;;;24.00;68.90;;;;;;5048019;28;20075;-28
2021/07/20 01:52:52;;;;;;;4.28;3.97;;;24.00;68.80;;;;;;5042149;28;20040;-27
2021/07/20 01:55:18;;;;;;;4.32;3.95;;;24.00;68.80;;;;;;5038531;28;20052;-26
2021/07/20 01:57:43;;;;;;;4.20;3.90;;;24.00;68.80;;;;;;5044824;28;20396;-28
2021/07/20 02:00:16;;;;;;;4.30;3.90;;;24.00;68.90;;;;;;5033987;28;20024;-28
2021/07/20 02:08:39;;;;;;;4.55;3.97;;;23.90;69.10;;;;;;5068272;28;20040;-25
2021/07/20 02:11:09;;;;;;;4.38;4.07;;;23.90;69.20;;;;;;5049683;28;20041;-28
2021/07/20 02:13:42;;;;;;;6.32;4.30;;;23.90;69.10;;;;;;5051454;28;20486;-28
2021/07/20 02:16:12;;;;;;;4.10;3.80;;;23.90;69.10;;;;;;5071846;28;20107;-26
2021/07/20 02:18:38;;;;;;;4.30;4.10;;;23.90;69.10;;;;;;5052431;28;20036;-26
2021/07/20 02:21:05;;;;;;;4.00;3.60;;;23.90;69.10;;;;;;5049760;28;20395;-27
2021/07/20 02:23:34;;;;;;;4.22;3.92;;;23.90;69.20;;;;;;5046821;28;20036;-28
2021/07/20 02:26:01;;;;;;;4.28;3.97;;;23.90;69.20;;;;;;5041702;28;20058;-26
2021/07/20 02:28:27;;;;;;;3.72;3.53;;;23.90;69.30;;;;;;5038656;28;20489;-28
2021/07/20 02:30:53;;;;;;;4.45;4.07;;;23.90;69.40;;;;;;5052467;28;20052;-27
2021/07/20 02:33:20;;;;;;;4.78;4.47;;;23.80;69.40;;;;;;5041322;28;20106;-24
2021/07/20 02:35:46;;;;;;;4.10;3.80;;;23.80;69.40;;;;;;5041448;28;20524;-27
2021/07/20 02:38:11;;;;;;;4.50;3.92;;;23.80;69.40;;;;;;5040956;28;20029;-31
2021/07/20 02:40:37;;;;;;;4.07;3.88;;;23.80;69.30;;;;;;5040194;28;20016;-28
2021/07/20 02:43:02;;;;;;;3.88;3.67;;;23.80;69.40;;;;;;5020037;28;20189;-27
2021/07/20 02:45:29;;;;;;;4.25;3.90;;;23.80;69.50;;;;;;5051517;28;20020;-25
2021/07/20 02:47:54;;;;;;;5.07;4.68;;;23.80;69.60;;;;;;5067014;28;20036;-26
2021/07/20 02:50:20;;;;;;;4.30;3.90;;;23.80;69.50;;;;;;5048033;28;20028;-31
2021/07/20 02:52:46;;;;;;;4.72;4.32;;;23.80;69.40;;;;;;5040811;28;20028;-28
2021/07/20 02:55:12;;;;;;;6.70;4.20;;;23.80;70.30;;;;;;5055606;28;20482;-30
2021/07/20 02:57:39;;;;;;;4.50;4.20;;;23.80;69.50;;;;;;5050916;28;20111;-25
2021/07/20 03:00:11;;;;;;;3.53;3.33;;;23.80;69.50;;;;;;5066914;28;20027;-30
2021/07/20 03:02:37;;;;;;;4.28;3.92;;;23.70;69.50;;;;;;5066730;28;20095;-29
2021/07/20 03:05:06;;;;;;;5.53;3.90;;;23.70;69.40;;;;;;5049235;28;20036;-27
2021/07/20 03:07:32;;;;;;;3.67;3.47;;;23.80;69.40;;;;;;5069860;28;20063;-27
2021/07/20 03:09:57;;;;;;;3.88;3.67;;;23.70;69.40;;;;;;5021864;28;20489;-25
2021/07/20 03:12:23;;;;;;;4.03;3.72;;;23.70;69.50;;;;;;5023042;28;20080;-26
2021/07/20 03:14:49;;;;;;;3.90;3.70;;;23.70;69.30;;;;;;5040809;28;20024;-26
2021/07/20 03:17:14;;;;;;;4.53;4.20;;;23.70;70.20;;;;;;5044670;28;20029;-26
2021/07/20 03:19:41;;;;;;;3.90;3.65;;;23.70;69.60;;;;;;5039956;28;20064;-31
2021/07/20 03:22:08;;;;;;;4.20;3.83;;;23.70;69.50;;;;;;5020323;28;20039;-26
2021/07/20 03:24:38;;;;;;;4.03;3.83;;;23.70;69.60;;;;;;5039672;28;20033;-25
2021/07/20 03:27:04;;;;;;;4.90;4.13;;;23.70;69.60;;;;;;5057921;28;20583;-30
2021/07/20 03:29:30;;;;;;;4.15;3.80;;;23.60;69.60;;;;;;5040266;28;20021;-32
2021/07/20 03:31:56;;;;;;;6.30;4.40;;;23.60;70.30;;;;;;5040268;28;20047;-31
2021/07/20 03:34:21;;;;;;;4.10;3.90;;;23.60;69.60;;;;;;5036809;28;20036;-28
2021/07/20 03:36:47;;;;;;;3.80;3.60;;;23.60;69.60;;;;;;5038400;28;20029;-29
2021/07/20 03:39:12;;;;;;;4.63;4.22;;;23.60;69.60;;;;;;5040687;28;20025;-26
2021/07/20 03:41:38;;;;;;;3.85;3.55;;;23.60;69.50;;;;;;5061015;28;20042;-29
2021/07/20 03:44:04;;;;;;;4.50;4.13;;;23.60;69.60;;;;;;5048211;28;20040;-26
2021/07/20 03:46:29;;;;;;;4.30;4.10;;;23.60;69.70;;;;;;5069241;28;20013;-29
2021/07/20 03:48:55;;;;;;;4.30;4.00;;;23.60;69.70;;;;;;5020831;28;20038;-29
2021/07/20 03:51:21;;;;;;;4.57;4.22;;;23.60;69.70;;;;;;5047714;28;20539;-27
2021/07/20 03:53:47;;;;;;;4.13;3.83;;;23.60;69.80;;;;;;5060598;28;20024;-26
2021/07/20 03:56:12;;;;;;;4.05;3.75;;;23.60;69.80;;;;;;5039567;28;20029;-30
2021/07/20 03:58:38;;;;;;;4.00;3.70;;;23.60;69.70;;;;;;5038934;28;20134;-28
2021/07/20 04:01:04;;;;;;;4.30;4.00;;;23.50;69.80;;;;;;5058623;28;20406;-26
2021/07/20 04:03:30;;;;;;;4.53;4.18;;;23.50;69.80;;;;;;5033426;28;20035;-27
2021/07/20 04:05:58;;;;;;;4.50;4.10;;;23.50;69.70;;;;;;5031457;28;20043;-26
2021/07/20 04:08:24;;;;;;;3.90;3.60;;;23.50;69.80;;;;;;5046415;28;20505;-28
2021/07/20 04:10:50;;;;;;;4.32;3.95;;;23.50;69.80;;;;;;5057296;28;20051;-29
2021/07/20 04:13:16;;;;;;;4.22;3.92;;;23.50;69.80;;;;;;5035564;28;20129;-25
2021/07/20 04:15:46;;;;;;;3.67;3.45;;;23.50;69.90;;;;;;5038715;28;20477;-31
2021/07/20 04:18:13;;;;;;;3.78;3.47;;;23.50;69.80;;;;;;5049295;28;20585;-31
2021/07/20 04:20:38;;;;;;;4.50;4.20;;;23.50;69.80;;;;;;5065342;28;20028;-33
2021/07/20 04:23:05;;;;;;;4.03;3.72;;;23.50;69.80;;;;;;5047781;28;20036;-30
2021/07/20 04:25:31;;;;;;;4.03;3.70;;;23.40;70.00;;;;;;5050607;28;20017;-26
2021/07/20 04:27:56;;;;;;;4.38;4.07;;;23.40;70.80;;;;;;5037053;28;20514;-28
2021/07/20 04:30:22;;;;;;;4.15;3.85;;;23.40;70.10;;;;;;5041968;28;20025;-26
2021/07/20 04:32:48;;;;;;;5.25;3.63;;;23.40;70.10;;;;;;5062211;28;20107;-28
2021/07/20 04:35:15;;;;;;;3.65;3.45;;;23.40;70.10;;;;;;5033543;28;20032;-27
2021/07/20 04:37:41;;;;;;;4.10;3.78;;;23.40;70.10;;;;;;5066449;28;20056;-26
2021/07/20 04:40:09;;;;;;;3.95;3.65;;;23.40;70.00;;;;;;5051128;28;20055;-26
2021/07/20 04:42:35;;;;;;;4.43;4.03;;;23.40;70.10;;;;;;5049850;28;20024;-30
2021/07/20 04:45:01;;;;;;;4.07;3.78;;;23.40;70.10;;;;;;5047774;28;20094;-28
2021/07/20 04:47:27;;;;;;;4.35;4.05;;;23.40;70.00;;;;;;5065535;28;20021;-25
2021/07/20 04:49:52;;;;;;;4.72;4.15;;;23.40;69.90;;;;;;5047220;28;20094;-30
2021/07/20 04:52:18;;;;;;;3.70;3.50;;;23.40;70.10;;;;;;5051423;28;20029;-29
2021/07/20 04:54:44;;;;;;;3.72;3.53;;;23.40;70.20;;;;;;5033540;28;20039;-33
2021/07/20 04:57:09;;;;;;;4.45;4.05;;;23.40;70.20;;;;;;5040916;28;20025;-28
2021/07/20 04:59:35;;;;;;;4.28;3.85;;;23.40;70.30;;;;;;5056984;28;20032;-30
2021/07/20 05:02:00;;;;;;;4.03;3.72;;;23.40;70.20;;;;;;5056985;28;20035;-26
2021/07/20 05:04:27;;;;;;;4.10;3.75;;;23.30;70.30;;;;;;5036386;28;20025;-32
2021/07/20 05:06:52;;;;;;;4.35;3.63;;;23.30;70.40;;;;;;5033605;28;20032;-30
2021/07/20 05:09:18;;;;;;;4.30;4.05;;;23.30;70.50;;;;;;5056705;28;20099;-29
2021/07/20 05:11:44;;;;;;;4.20;3.80;;;23.30;70.50;;;;;;5039050;28;20048;-30
2021/07/20 05:14:10;;;;;;;3.97;3.70;;;23.30;70.60;;;;;;5041527;28;20040;-29
2021/07/20 05:16:35;;;;;;;4.75;4.30;;;23.30;70.70;;;;;;5059299;28;20035;-28
2021/07/20 05:19:02;;;;;;;3.85;3.65;;;23.30;70.70;;;;;;5039867;28;20486;-28
2021/07/20 05:21:27;;;;;;;4.10;3.90;;;23.30;70.80;;;;;;5041929;28;20505;-30
2021/07/20 05:23:53;;;;;;;4.32;3.92;;;23.20;70.70;;;;;;5047558;28;20040;-32
2021/07/20 05:26:18;;;;;;;4.15;3.85;;;23.30;70.70;;;;;;5034624;28;20393;-30
2021/07/20 05:28:44;;;;;;;4.63;3.63;;;23.30;70.80;;;;;;5051361;28;20079;-31
2021/07/20 05:31:10;;;;;;;4.10;3.80;;;23.30;70.90;;;;;;5072386;28;20024;-31
2021/07/20 05:33:35;;;;;;;3.95;3.72;;;23.20;70.90;;;;;;5034966;28;20047;-30
2021/07/20 05:36:02;;;;;;;4.13;3.83;;;23.20;71.00;;;;;;5059635;28;20056;-34
2021/07/20 05:38:28;;;;;;;3.83;3.53;;;23.20;70.90;;;;;;5065256;28;20051;-27
2021/07/20 05:40:56;;;;;;;4.15;3.85;;;23.20;70.90;;;;;;5067897;28;20494;-33
2021/07/20 05:43:22;;;;;;;4.10;3.70;;;23.20;71.10;;;;;;5069751;28;20082;-33
2021/07/20 05:45:47;;;;;;;3.97;3.78;;;23.20;71.90;;;;;;5048622;28;20036;-28
2021/07/20 05:48:17;;;;;;;4.00;3.80;;;23.20;71.10;;;;;;5052751;28;20106;-31
2021/07/20 05:50:49;;;;;;;4.50;3.83;;;23.30;71.30;;;;;;5031885;28;20028;-29
2021/07/20 05:53:16;;;;;;;3.90;3.70;;;23.20;71.20;;;;;;5045046;28;20033;-32
2021/07/20 05:55:45;;;;;;;3.92;3.72;;;23.30;71.20;;;;;;5030902;28;20020;-26
2021/07/20 05:58:11;;;;;;;5.07;3.67;;;23.20;71.30;;;;;;5050640;28;20029;-29
2021/07/20 06:00:36;;;;;;;3.58;3.38;;;23.20;71.40;;;;;;5048048;28;20435;-32
2021/07/20 06:03:02;;;;;;;3.90;3.70;;;23.20;72.20;;;;;;5051736;28;20190;-27
2021/07/20 06:05:28;;;;;;;3.90;3.60;;;23.30;71.40;;;;;;5026450;28;20028;-33
2021/07/20 06:07:54;;;;;;;3.75;3.50;;;23.30;71.30;;;;;;5040609;28;20028;-28
2021/07/20 06:10:20;;;;;;;4.28;3.97;;;23.40;72.30;;;;;;5048457;28;20436;-31
2021/07/20 06:12:46;;;;;;;4.28;3.70;;;23.40;71.10;;;;;;5039333;28;20044;-31
2021/07/20 06:15:13;;;;;;;4.28;3.85;;;23.40;71.90;;;;;;5058048;28;20498;-33
2021/07/20 06:17:38;;;;;;;4.47;4.07;;;23.30;72.50;;;;;;5037079;28;20079;-31
2021/07/20 06:20:05;;;;;;;4.32;3.95;;;23.20;72.80;;;;;;5048242;28;20424;-32
2021/07/20 06:22:32;;;;;;;7.32;4.18;;;23.10;73.20;;;;;;5037229;28;20093;-31
2021/07/20 06:24:57;;;;;;;6.55;4.07;;;23.10;73.30;;;;;;5035031;28;20028;-31
2021/07/20 06:27:23;;;;;;;6.22;4.20;;;23.10;73.20;;;;;;5039349;28;20387;-32
2021/07/20 06:29:53;;;;;;;4.20;3.80;;;23.10;73.40;;;;;;5015210;28;20496;-30
2021/07/20 06:32:18;;;;;;;4.47;4.05;;;23.10;73.60;;;;;;5064073;28;20017;-32
2021/07/20 06:34:44;;;;;;;4.07;3.78;;;23.10;74.60;;;;;;5026596;28;20482;-29
2021/07/20 06:37:10;;;;;;;5.47;4.15;;;23.00;74.00;;;;;;5034067;28;20090;-30
2021/07/20 06:39:36;;;;;;;4.47;4.07;;;23.00;73.80;;;;;;5039427;28;20116;-29
2021/07/20 06:42:02;;;;;;;5.40;3.67;;;23.00;74.20;;;;;;5029227;28;20063;-27
2021/07/20 06:44:31;;;;;;;3.83;3.53;;;23.00;74.10;;;;;;5043611;28;20060;-29
2021/07/20 06:46:59;;;;;;;4.72;4.20;;;23.10;73.90;;;;;;5060223;28;20497;-34
2021/07/20 06:49:24;;;;;;;3.78;3.58;;;23.20;73.50;;;;;;5038248;28;20447;-32
2021/07/20 06:51:50;;;;;;;4.30;3.90;;;23.20;73.50;;;;;;5023602;28;20032;-25
2021/07/20 06:54:15;;;;;;;4.18;3.80;;;23.10;73.80;;;;;;5049633;28;20028;-27
2021/07/20 06:56:46;;;;;;;6.93;3.78;;;23.10;74.00;;;;;;5061637;28;20374;-26
2021/07/20 06:59:12;;;;;;;3.90;3.70;;;23.20;73.90;;;;;;5044023;28;20374;-28
2021/07/20 07:01:38;;;;;;;4.50;4.10;;;23.20;74.10;;;;;;5030518;28;20043;-28
2021/07/20 07:04:17;;;;;;;5.80;3.60;;;23.20;73.70;;;;;;5023702;28;20036;-31
2021/07/20 07:06:46;;;;;;;3.88;3.67;;;23.40;72.90;;;;;;5054516;28;20052;-30
2021/07/20 07:09:11;;;;;;;3.90;3.67;;;23.40;72.70;;;;;;4686213;28;10000483;-29
2021/07/20 07:11:40;;;;;;;4.47;3.97;;;23.60;72.10;;;;;;5028014;28;20060;-27
2021/07/20 07:14:06;;;;;;;5.40;3.85;;;23.80;71.30;;;;;;5033635;28;20021;-27
2021/07/20 07:16:32;;;;;;;3.78;3.58;;;23.80;71.30;;;;;;5035121;28;20044;-29
2021/07/20 07:18:58;;;;;;;4.05;3.55;;;23.90;71.00;;;;;;5009844;28;20030;-29
2021/07/20 07:21:23;;;;;;;3.45;3.25;;;23.90;71.20;;;;;;5028103;28;20033;-30
2021/07/20 07:23:51;;;;;;;3.90;3.35;;;24.00;71.70;;;;;;5030790;28;20758;-26
2021/07/20 07:26:18;;;;;;;4.00;3.70;;;24.10;71.40;;;;;;5030859;28;20055;-27
2021/07/20 07:28:45;;;;;;;4.45;3.58;;;24.10;71.40;;;;;;5026924;28;20045;-27
2021/07/20 07:31:11;;;;;;;4.20;3.85;;;24.10;71.00;;;;;;5030708;28;20032;-31
2021/07/20 07:33:37;;;;;;;4.20;3.85;;;24.20;70.60;;;;;;5010644;28;20334;-30
2021/07/20 07:36:05;;;;;;;3.60;3.40;;;24.20;70.20;;;;;;5025343;28;20512;-27
2021/07/20 07:38:31;;;;;;;3.50;3.30;;;24.30;70.30;;;;;;5030781;28;20053;-28
2021/07/20 07:40:57;;;;;;;4.00;3.70;;;24.30;70.30;;;;;;5032658;28;20064;-28
2021/07/20 07:43:26;;;;;;;3.92;3.63;;;24.30;70.20;;;;;;5033407;28;20091;-32
2021/07/20 07:45:54;;;;;;;3.63;3.33;;;24.30;70.60;;;;;;5044691;28;20497;-27
2021/07/20 07:48:20;;;;;;;4.03;3.58;;;24.30;70.40;;;;;;5040280;28;20029;-27
2021/07/20 07:50:47;;;;;;;3.53;3.15;;;24.20;71.10;;;;;;5041111;28;20661;-32
2021/07/20 07:53:13;;;;;;;4.03;3.80;;;24.20;71.90;;;;;;5040510;28;20037;-26
2021/07/20 07:55:39;;;;;;;3.63;3.42;;;24.30;70.70;;;;;;5021166;28;20024;-28
2021/07/20 07:58:04;;;;;;;4.22;3.80;;;24.30;70.60;;;;;;5031099;28;20555;-30
2021/07/20 08:00:32;;;;;;;4.10;3.50;;;24.20;71.10;;;;;;5041941;28;20032;-25
2021/07/20 08:02:58;;;;;;;3.50;3.30;;;24.20;71.30;;;;;;5025539;28;20055;-29
2021/07/20 08:05:24;;;;;;;3.95;3.60;;;24.20;71.40;;;;;;5044268;28;20119;-31
2021/07/20 08:07:50;;;;;;;4.65;3.70;;;24.20;72.30;;;;;;5045715;28;20035;-38
2021/07/20 08:10:17;;;;;;;3.92;3.63;;;24.20;71.50;;;;;;5048940;28;20088;-34
2021/07/20 08:12:43;;;;;;;3.65;3.45;;;24.20;71.30;;;;;;5048202;28;20408;-33
2021/07/20 08:15:09;;;;;;;4.55;3.35;;;24.20;71.40;;;;;;5029111;28;20039;-37
2021/07/20 08:17:35;;;;;;;3.88;3.30;;;24.20;71.30;;;;;;5044327;28;20417;-35
2021/07/20 08:20:00;;;;;;;4.63;3.70;;;24.20;71.10;;;;;;5047600;28;20032;-35
2021/07/20 08:22:29;;;;;;;3.85;3.55;;;24.20;71.20;;;;;;5032779;28;20044;-38
2021/07/20 08:25:03;;;;;;;3.67;3.35;;;24.20;71.20;;;;;;5050719;28;20036;-31
2021/07/20 08:27:52;;;;;;;3.60;3.40;;;24.20;71.40;;;;;;5046466;28;20032;-34
2021/07/20 08:30:18;;;;;;;3.42;3.25;;;24.20;71.70;;;;;;5033825;28;20039;-30
2021/07/20 08:32:59;;;;;;;3.38;3.17;;;24.20;71.50;;;;;;5032252;28;20052;-33
2021/07/20 08:35:26;;;;;;;3.50;3.20;;;24.20;71.20;;;;;;5033460;28;20028;-33
2021/07/20 08:37:53;;;;;;;3.80;3.60;;;24.30;71.20;;;;;;5030518;28;20082;-35
2021/07/20 08:40:41;;;;;;;3.92;3.45;;;24.30;71.30;;;;;;5047199;28;20792;-27
2021/07/20 08:43:27;;;;;;;3.30;3.10;;;24.30;71.00;;;;;;5065368;28;20036;-34
2021/07/20 08:46:14;;;;;;;4.03;3.83;;;24.30;70.80;;;;;;5066382;28;20037;-34
2021/07/20 08:48:46;;;;;;;3.83;3.53;;;24.40;70.70;;;;;;5067601;28;20036;-35
2021/07/20 08:51:14;;;;;;;3.58;3.47;;;24.50;70.60;;;;;;5053195;28;20039;-34
2021/07/20 08:53:45;;;;;;;3.88;3.63;;;24.50;70.60;;;;;;5051632;28;20695;-31
2021/07/20 08:56:11;;;;;;;4.18;3.75;;;24.50;70.40;;;;;;5036695;28;20515;-36
2021/07/20 08:58:43;;;;;;;3.63;3.40;;;24.50;70.60;;;;;;5032734;28;20601;-31
2021/07/20 09:01:16;;;;;;;4.15;3.85;;;24.50;70.60;;;;;;5034196;28;20174;-30
2021/07/20 09:03:48;;;;;;;4.05;3.75;;;24.60;70.50;;;;;;5068660;28;20131;-33
2021/07/20 09:06:26;;;;;;;4.45;4.05;;;24.60;70.30;;;;;;5068444;28;20029;-31
2021/07/20 09:09:14;;;;;;;3.63;3.33;;;24.60;70.30;;;;;;5067052;28;20045;-30
2021/07/20 09:11:44;;;;;;;3.60;3.40;;;24.70;70.20;;;;;;5067039;28;20131;-29
2021/07/20 09:14:25;;;;;;;3.60;3.40;;;24.70;70.00;;;;;;5069298;28;20132;-30
2021/07/20 09:17:11;;;;;;;3.60;3.30;;;24.70;69.90;;;;;;5049332;28;20085;-29
2021/07/20 09:20:03;;;;;;;3.78;3.53;;;24.70;69.90;;;;;;5071095;28;20144;-28
2021/07/20 09:22:46;;;;;;;3.90;3.60;;;24.70;70.10;;;;;;5069404;28;20490;-27
2021/07/20 09:25:33;;;;;;;4.03;3.72;;;24.80;69.60;;;;;;5068375;28;20654;-30
2021/07/20 09:28:23;;;;;;;4.63;3.75;;;24.90;70.30;;;;;;5066805;28;20626;-29
2021/07/20 09:30:49;;;;;;;3.90;3.42;;;24.90;70.20;;;;;;5050277;28;20085;-31
2021/07/20 09:33:41;;;;;;;4.97;3.05;;;24.90;70.30;;;;;;5049792;28;20029;-26
2021/07/20 09:36:31;;;;;;;3.72;3.53;;;24.90;70.00;;;;;;5030029;28;20032;-31
2021/07/20 09:39:03;;;;;;;3.88;3.58;;;24.90;69.40;;;;;;5040863;28;20032;-27
2021/07/20 09:41:49;;;;;;;4.03;3.55;;;24.90;70.00;;;;;;5059996;28;20552;-29
2021/07/20 09:44:37;;;;;;;3.65;3.45;;;25.00;69.60;;;;;;5038404;28;20124;-31
2021/07/20 09:47:25;;;;;;;3.74;3.54;;;25.00;69.60;;;;;;5009744;28;10001134;-28
2021/07/20 09:50:10;;;;;;;3.72;3.38;;;25.10;69.20;;;;;;5059297;28;20249;-30
2021/07/20 09:52:41;;;;;;;4.03;3.80;;;25.10;69.00;;;;;;5066991;28;20063;-32
2021/07/20 09:55:26;;;;;;;5.20;4.70;;;25.20;68.90;;;;;;5074403;28;20090;-32
2021/07/20 09:58:27;;;;;;;5.28;4.50;;;25.20;69.00;;;;;;5065746;28;20032;-30
2021/07/20 10:01:18;;;;;;;5.05;4.53;;;25.20;69.30;;;;;;5068134;28;20036;-28
2021/07/20 10:04:02;;;;;;;4.93;4.15;;;25.30;69.30;;;;;;5052790;28;20044;-34
2021/07/20 10:06:48;;;;;;;4.20;3.80;;;25.30;69.00;;;;;;5049483;28;20032;-35
2021/07/20 10:09:33;;;;;;;4.47;4.18;;;25.40;69.10;;;;;;5068297;28;20029;-28
2021/07/20 10:12:07;;;;;;;4.50;4.20;;;25.40;68.80;;;;;;5031441;28;20052;-34
2021/07/20 10:14:51;;;;;;;3.92;3.72;;;25.40;69.30;;;;;;5051157;28;20060;-41
2021/07/20 10:17:32;;;;;;;4.10;3.80;;;25.40;68.80;;;;;;5067202;28;20089;-35
2021/07/20 10:20:20;;;;;;;4.32;4.05;;;25.40;68.40;;;;;;5046774;28;20135;-28
2021/07/20 10:22:55;;;;;;;4.07;3.78;;;25.40;68.80;;;;;;5047856;28;20037;-29
2021/07/20 10:25:37;;;;;;;6.15;4.22;;;25.40;68.80;;;;;;5048381;28;20025;-30
2021/07/20 10:28:11;;;;;;;4.43;3.95;;;25.40;69.00;;;;;;5047025;28;20504;-28
2021/07/20 10:30:38;;;;;;;4.82;4.50;;;25.40;69.00;;;;;;5065493;28;20037;-28
2021/07/20 10:33:17;;;;;;;4.85;4.45;;;25.40;68.60;;;;;;5050469;28;20032;-28
2021/07/20 10:35:46;;;;;;;4.15;3.85;;;25.40;68.70;;;;;;5048780;28;20032;-34
2021/07/20 10:38:17;;;;;;;4.30;3.97;;;25.40;68.80;;;;;;4696620;28;10000258;-37
2021/07/20 10:40:43;;;;;;;4.72;4.13;;;25.40;68.50;;;;;;5027975;28;20037;-32
2021/07/20 10:43:29;;;;;;;4.90;4.13;;;25.40;68.70;;;;;;5028389;28;20060;-29
2021/07/20 10:45:54;;;;;;;4.40;4.00;;;25.40;68.60;;;;;;5064433;28;20024;-28
2021/07/20 10:48:21;;;;;;;4.10;3.80;;;25.40;68.50;;;;;;5029715;28;20408;-32
2021/07/20 10:51:12;;;;;;;4.30;4.00;;;25.40;68.40;;;;;;5028519;28;20036;-27
2021/07/20 10:53:56;;;;;;;4.95;4.63;;;25.40;68.10;;;;;;5062661;28;20580;-33
2021/07/20 10:56:33;;;;;;;3.92;3.70;;;25.40;68.40;;;;;;5046213;28;20104;-29
2021/07/20 10:59:17;;;;;;;4.28;3.83;;;25.50;68.10;;;;;;5043897;28;20066;-39
2021/07/20 11:02:02;;;;;;;4.22;3.92;;;25.40;68.00;;;;;;5062897;28;20101;-36
2021/07/20 11:04:57;;;;;;;4.03;3.72;;;25.40;67.70;;;;;;5066130;28;20070;-35
2021/07/20 11:07:49;;;;;;;3.42;3.15;;;25.50;67.90;;;;;;5061052;28;20186;-29
2021/07/20 11:10:31;;;;;;;3.95;3.65;;;25.40;68.50;;;;;;5053529;28;20036;-28
2021/07/20 11:12:59;;;;;;;4.45;4.05;;;25.60;68.60;;;;;;5046745;28;20143;-32
2021/07/20 11:15:25;;;;;;;3.28;3.08;;;25.60;67.50;;;;;;5045129;28;20036;-35
2021/07/20 11:17:51;;;;;;;3.90;3.50;;;25.50;68.00;;;;;;5026120;28;20046;-34
2021/07/20 11:20:18;;;;;;;3.67;3.38;;;25.50;68.30;;;;;;5029428;28;20488;-27
2021/07/20 11:22:44;;;;;;;4.00;3.80;;;25.60;68.40;;;;;;5062010;28;20184;-31
2021/07/20 11:25:10;;;;;;;4.28;3.97;;;25.60;67.80;;;;;;5065110;28;20680;-30
2021/07/20 11:27:39;;;;;;;4.03;3.72;;;25.60;68.20;;;;;;5025672;28;20790;-30
2021/07/20 11:30:12;;;;;;;3.75;3.45;;;25.60;68.60;;;;;;5044702;28;20036;-28
2021/07/20 11:32:39;;;;;;;3.70;3.28;;;25.60;69.00;;;;;;5062022;28;20024;-29
2021/07/20 11:35:26;;;;;;;3.92;3.58;;;25.60;68.60;;;;;;5041679;28;20041;-30
2021/07/20 11:37:55;;;;;;;4.00;3.70;;;25.80;68.20;;;;;;5037576;28;20032;-29
2021/07/20 11:40:25;;;;;;;3.72;3.42;;;25.80;67.30;;;;;;5039472;28;20507;-27
2021/07/20 11:43:14;;;;;;;3.17;2.97;;;25.70;67.30;;;;;;5023933;28;20071;-34
2021/07/20 11:45:49;;;;;;;4.15;3.80;;;25.70;67.70;;;;;;5044229;28;20047;-33
2021/07/20 11:48:14;;;;;;;4.00;3.70;;;25.70;67.70;;;;;;5044539;28;20671;-28
2021/07/20 11:51:16;;;;;;;4.00;3.70;;;25.70;67.50;;;;;;5060551;28;20039;-31
2021/07/20 11:54:00;;;;;;;6.28;3.30;;;25.70;67.20;;;;;;5044447;28;20040;-30
2021/07/20 11:56:36;;;;;;;3.55;3.25;;;25.70;67.40;;;;;;5058059;28;20032;-25
2021/07/20 11:59:20;;;;;;;3.50;3.30;;;25.70;67.80;;;;;;5023869;28;20794;-27
2021/07/20 12:01:50;;;;;;;;;;;25.70;67.60;;;;;;5062129;28;20089;-30
2021/07/20 12:04:48;;;;;;;3.35;3.15;;;25.60;67.50;;;;;;5042382;28;20045;-31
2021/07/20 12:07:28;;;;;;;4.03;3.13;;;25.60;67.30;;;;;;5045110;28;20135;-33
2021/07/20 12:09:57;;;;;;;3.33;3.10;;;25.60;67.40;;;;;;5047261;28;20060;-30
2021/07/20 12:12:29;;;;;;;3.42;3.13;;;25.60;67.60;;;;;;5065015;28;20052;-31
2021/07/20 12:14:55;;;;;;;3.42;3.22;;;25.60;67.50;;;;;;5025839;28;20194;-32
2021/07/20 12:17:21;;;;;;;3.47;3.28;;;25.60;67.60;;;;;;5039515;28;20036;-35
2021/07/20 12:19:46;;;;;;;3.17;2.97;;;25.70;68.30;;;;;;5028447;28;20067;-36
2021/07/20 12:22:12;;;;;;;2.80;2.70;;;25.70;68.10;;;;;;5059384;28;20958;-37
2021/07/20 12:24:37;;;;;;;3.53;3.33;;;25.60;68.60;;;;;;5045646;28;20055;-32
2021/07/20 12:27:06;;;;;;;3.50;3.30;;;25.60;68.50;;;;;;5058309;28;20577;-29
2021/07/20 12:29:32;;;;;;;3.60;3.30;;;25.70;68.40;;;;;;5060985;28;20054;-42
2021/07/20 12:31:59;;;;;;;5.85;3.05;;;25.70;68.30;;;;;;5042194;28;21469;-31
2021/07/20 12:34:24;;;;;;;3.40;3.30;;;25.70;68.60;;;;;;5044028;28;20452;-26
2021/07/20 12:36:50;;;;;;;3.38;3.08;;;25.70;68.60;;;;;;5041350;28;20047;-35
2021/07/20 12:39:20;;;;;;;3.80;3.38;;;25.70;68.40;;;;;;5061046;28;20119;-30
2021/07/20 12:41:46;;;;;;;3.20;3.00;;;25.70;68.40;;;;;;5062981;28;20811;-28
2021/07/20 12:44:13;;;;;;;3.38;3.05;;;25.70;68.50;;;;;;5060158;28;20033;-33
2021/07/20 12:46:40;;;;;;;3.30;3.00;;;25.70;68.50;;;;;;5065609;28;20036;-33
2021/07/20 12:49:06;;;;;;;3.70;3.40;;;25.70;68.30;;;;;;5060237;28;20041;-36
2021/07/20 12:51:31;;;;;;;3.10;2.90;;;25.70;68.10;;;;;;5065419;28;21236;-33
2021/07/20 12:53:57;;;;;;;3.55;3.35;;;25.70;68.30;;;;;;5067752;28;20044;-29
2021/07/20 12:56:24;;;;;;;3.47;3.28;;;25.70;68.20;;;;;;5062907;28;20466;-30
2021/07/20 12:58:51;;;;;;;3.10;2.78;;;25.70;67.90;;;;;;5061295;28;20475;-29
2021/07/20 13:01:19;;;;;;;3.25;3.03;;;25.70;68.30;;;;;;5062905;28;20492;-33
2021/07/20 13:03:48;;;;;;;2.63;2.50;;;25.70;68.00;;;;;;5046373;28;20040;-32
2021/07/20 13:06:17;;;;;;;4.55;2.80;;;25.70;67.80;;;;;;5039520;28;21844;-32
2021/07/20 13:08:43;;;;;;;3.05;2.85;;;25.70;68.50;;;;;;5063133;28;20400;-33